Time;durP1;ratioP1;P1;durP2;ratioP2;P2;SDS_P1;SDS_P2;PMS_P1;PMS_P2;Temp;Humidity;BMP_temperature;BMP_pressure;BME280_temperature;BME280_humidity;BME280_pressure;Samples;Min_cycle;Max_cycle;Signal;HPM_P1;HPM_P2
2020/12/11 00:00:19;;;;;;;42.17;12.38;;;;;;;8.42;54.38;100387.81;5068820;28;20501;-70
2020/12/11 00:02:45;;;;;;;33.03;11.90;;;;;;;7.72;55.89;100381.50;5069218;28;20035;-71
2020/12/11 00:05:11;;;;;;;28.95;11.70;;;;;;;8.56;54.25;100370.47;5067333;28;20029;-71
2020/12/11 00:07:40;;;;;;;28.98;11.38;;;;;;;8.68;53.81;100370.31;5068670;28;20050;-71
2020/12/11 00:10:11;;;;;;;34.53;11.23;;;;;;;8.70;53.91;100367.75;5084712;28;20033;-71
2020/12/11 00:12:37;;;;;;;36.30;12.48;;;;;;;8.81;53.71;100359.91;5067828;28;20467;-70
2020/12/11 00:15:05;;;;;;;39.45;12.40;;;;;;;8.68;54.33;100360.03;5068718;28;20029;-71
2020/12/11 00:17:30;;;;;;;42.53;12.45;;;;;;;8.72;53.80;100359.13;5069350;28;20110;-71
2020/12/11 00:19:56;;;;;;;35.08;11.07;;;;;;;8.51;54.00;100354.22;5065848;28;20056;-71
2020/12/11 00:22:22;;;;;;;32.72;12.82;;;;;;;8.78;53.66;100353.06;5070678;28;20039;-71
2020/12/11 00:24:52;;;;;;;32.90;11.52;;;;;;;8.82;53.54;100354.72;5074846;28;20032;-71
2020/12/11 00:27:18;;;;;;;30.63;11.43;;;;;;;8.91;53.60;100352.03;5070223;28;20481;-71
2020/12/11 00:29:44;;;;;;;30.02;12.60;;;;;;;8.69;53.97;100350.59;5068166;28;20040;-70
2020/12/11 00:32:09;;;;;;;41.47;12.20;;;;;;;8.82;53.82;100340.97;5049174;28;20113;-70
2020/12/11 00:34:35;;;;;;;46.83;13.23;;;;;;;8.75;53.87;100342.78;5068096;28;20129;-71
2020/12/11 00:37:01;;;;;;;35.25;11.85;;;;;;;8.82;53.73;100331.53;5064158;28;20039;-73
2020/12/11 00:39:26;;;;;;;31.30;11.75;;;;;;;8.74;53.81;100325.63;5069379;28;20066;-70
2020/12/11 00:41:52;;;;;;;33.90;11.80;;;;;;;8.72;53.81;100327.34;5064121;28;20060;-70
2020/12/11 00:44:18;;;;;;;35.33;12.68;;;;;;;8.77;53.78;100317.84;5068803;28;20032;-71
2020/12/11 00:46:43;;;;;;;36.65;13.15;;;;;;;8.79;53.87;100315.25;5050069;28;20100;-71
2020/12/11 00:49:09;;;;;;;37.58;13.35;;;;;;;8.64;54.74;100305.97;5064962;28;20040;-70
2020/12/11 00:51:35;;;;;;;32.78;12.30;;;;;;;8.60;54.64;100307.75;5084838;28;20067;-72
2020/12/11 00:54:00;;;;;;;33.25;12.65;;;;;;;8.65;54.44;100307.69;5066642;28;20028;-71
2020/12/11 00:56:26;;;;;;;32.85;13.38;;;;;;;8.70;54.69;100303.34;5067678;28;20029;-72
2020/12/11 00:58:51;;;;;;;38.10;12.00;;;;;;;8.54;55.65;100301.81;5068836;28;20043;-73
2020/12/11 01:01:17;;;;;;;31.83;12.02;;;;;;;8.57;55.45;100299.19;5068216;28;20040;-73
2020/12/11 01:03:43;;;;;;;35.28;13.15;;;;;;;8.73;54.91;100300.75;5069048;28;20397;-71
2020/12/11 01:06:09;;;;;;;36.38;12.43;;;;;;;8.46;56.11;100297.63;5070216;28;20532;-70
2020/12/11 01:08:34;;;;;;;29.70;11.93;;;;;;;8.27;56.72;100290.94;5085440;28;23227;-72
2020/12/11 01:11:00;;;;;;;34.53;13.20;;;;;;;8.55;56.31;100288.94;5069750;28;20036;-71
2020/12/11 01:13:26;;;;;;;31.75;10.95;;;;;;;8.35;56.86;100290.84;5058645;28;20037;-71
2020/12/11 01:15:51;;;;;;;36.88;12.73;;;;;;;8.66;56.19;100287.09;5068869;28;20044;-71
2020/12/11 01:18:17;;;;;;;37.30;12.70;;;;;;;8.81;55.78;100283.44;5069080;28;20042;-71
2020/12/11 01:20:43;;;;;;;30.92;12.13;;;;;;;8.77;55.70;100276.63;5067813;28;20085;-71
2020/12/11 01:23:08;;;;;;;34.60;11.93;;;;;;;8.71;56.02;100277.56;5076130;28;20487;-72
2020/12/11 01:25:34;;;;;;;40.25;13.18;;;;;;;8.79;55.96;100274.88;5061352;28;20367;-72
2020/12/11 01:27:59;;;;;;;34.13;13.43;;;;;;;8.82;56.12;100271.41;5068772;28;20097;-70
2020/12/11 01:30:25;;;;;;;30.02;11.65;;;;;;;8.84;55.70;100273.09;5069102;28;20158;-71
2020/12/11 01:32:50;;;;;;;39.15;12.30;;;;;;;8.90;55.74;100262.69;5067999;28;20134;-71
2020/12/11 01:35:16;;;;;;;32.78;12.68;;;;;;;8.81;55.59;100267.97;5069093;28;20036;-71
2020/12/11 01:37:41;;;;;;;35.13;12.27;;;;;;;8.89;55.70;100257.59;5082975;28;20032;-71
2020/12/11 01:40:07;;;;;;;32.53;12.50;;;;;;;8.91;55.52;100246.38;5068686;28;20397;-72
2020/12/11 01:42:32;;;;;;;37.13;12.80;;;;;;;8.94;55.65;100246.31;5062109;28;20071;-72
2020/12/11 01:44:58;;;;;;;30.02;10.75;;;;;;;9.07;55.40;100243.56;5059627;28;20025;-71
2020/12/11 01:47:24;;;;;;;28.42;10.93;;;;;;;8.80;55.97;100239.69;5046187;28;20113;-72
2020/12/11 01:49:51;;;;;;;32.00;12.35;;;;;;;8.84;55.72;100237.03;5063506;28;20025;-73
2020/12/11 01:52:18;;;;;;;32.55;13.02;;;;;;;8.90;55.17;100230.91;5066075;28;20043;-71
2020/12/11 01:54:45;;;;;;;34.17;13.00;;;;;;;8.90;55.38;100231.78;5065402;28;20032;-70
2020/12/11 01:57:26;;;;;;;29.58;11.77;;;;;;;9.02;55.15;100217.00;5067502;28;20028;-71
2020/12/11 01:59:53;;;;;;;33.40;13.15;;;;;;;9.04;54.88;100212.66;5059133;28;20039;-71
2020/12/11 02:02:20;;;;;;;34.70;14.35;;;;;;;9.03;55.25;100216.97;5082424;28;20025;-72
2020/12/11 02:04:46;;;;;;;34.25;12.88;;;;;;;8.94;54.91;100207.66;5064972;28;20025;-71
2020/12/11 02:07:11;;;;;;;29.48;11.88;;;;;;;8.79;55.25;100197.56;5064171;28;20037;-72
2020/12/11 02:09:38;;;;;;;39.00;12.93;;;;;;;8.94;55.10;100199.94;5063775;28;20073;-72
2020/12/11 02:12:04;;;;;;;33.88;13.35;;;;;;;8.88;55.25;100197.44;5063201;28;20024;-72
2020/12/11 02:14:30;;;;;;;34.42;11.93;;;;;;;8.92;55.00;100193.94;5048113;28;20032;-71
2020/12/11 02:16:57;;;;;;;34.75;13.18;;;;;;;8.88;55.26;100192.28;5066482;28;20436;-71
2020/12/11 02:19:24;;;;;;;35.28;12.25;;;;;;;9.00;54.93;100180.09;5059309;28;20128;-71
2020/12/11 02:25:42;;;;;;;41.55;13.02;;;;;;;8.86;55.40;100178.59;5064479;28;20421;-72
2020/12/11 02:28:08;;;;;;;35.90;13.05;;;;;;;9.01;54.74;100174.06;5065384;28;20036;-72
2020/12/11 02:30:34;;;;;;;30.50;12.32;;;;;;;8.71;55.51;100178.81;5065863;28;20085;-71
2020/12/11 02:32:59;;;;;;;30.20;11.60;;;;;;;8.91;54.85;100178.53;5064345;28;20024;-72
2020/12/11 02:35:24;;;;;;;35.33;13.70;;;;;;;8.63;55.52;100172.91;5066153;28;20033;-72
2020/12/11 02:37:50;;;;;;;33.90;13.68;;;;;;;8.95;54.73;100172.41;5067122;28;20040;-72
2020/12/11 02:40:15;;;;;;;33.33;12.75;;;;;;;8.76;55.20;100166.72;5065393;28;20044;-72
2020/12/11 02:42:41;;;;;;;36.70;12.57;;;;;;;8.92;54.82;100157.84;5080898;28;20086;-72
2020/12/11 02:45:06;;;;;;;30.58;11.75;;;;;;;8.92;54.45;100149.28;5081465;28;20070;-71
2020/12/11 02:47:33;;;;;;;31.92;12.40;;;;;;;8.31;56.02;100151.00;5080755;28;20416;-71
2020/12/11 02:49:59;;;;;;;32.08;12.20;;;;;;;8.59;55.25;100145.47;5058993;28;20501;-72
2020/12/11 02:52:24;;;;;;;31.80;12.57;;;;;;;8.50;55.17;100143.88;5064990;28;20036;-72
2020/12/11 02:54:50;;;;;;;31.50;13.63;;;;;;;8.51;55.10;100143.88;5064026;28;20113;-71
2020/12/11 02:57:15;;;;;;;31.55;11.93;;;;;;;8.64;54.58;100134.25;5060093;28;20040;-72
2020/12/11 02:59:41;;;;;;;31.80;13.73;;;;;;;7.88;55.09;100138.63;5063989;28;20028;-71
2020/12/11 03:02:06;;;;;;;34.60;14.13;;;;;;;8.30;54.25;100131.25;5081933;28;20032;-71
2020/12/11 03:04:32;;;;;;;29.90;12.95;;;;;;;8.09;54.32;100128.09;5063955;28;20095;-71
2020/12/11 03:06:57;;;;;;;31.88;12.27;;;;;;;8.35;53.94;100123.47;5064931;28;20025;-71
2020/12/11 03:09:23;;;;;;;40.00;14.85;;;;;;;8.03;54.18;100128.16;5065764;28;20431;-71
2020/12/11 03:11:48;;;;;;;32.47;13.60;;;;;;;8.23;54.01;100121.91;5063630;28;20106;-71
2020/12/11 03:14:14;;;;;;;34.67;12.82;;;;;;;8.30;54.00;100115.81;5064936;28;20122;-72
2020/12/11 03:16:39;;;;;;;30.58;12.05;;;;;;;7.94;55.27;100115.41;5066557;28;20036;-71
2020/12/11 03:19:05;;;;;;;30.63;11.77;;;;;;;8.47;53.89;100113.03;5071332;28;20044;-71
2020/12/11 03:21:30;;;;;;;32.42;12.63;;;;;;;8.59;53.58;100107.69;5079830;28;20036;-71
2020/12/11 03:23:56;;;;;;;33.70;13.38;;;;;;;8.43;54.06;100112.22;5045457;28;628117;-72
2020/12/11 03:26:21;;;;;;;30.38;11.93;;;;;;;8.61;53.74;100107.69;5072239;28;20505;-71
2020/12/11 03:28:48;;;;;;;27.98;10.45;;;;;;;8.58;53.61;100095.69;5071000;28;20025;-70
2020/12/11 03:31:15;;;;;;;36.70;13.20;;;;;;;8.61;53.83;100093.06;5070613;28;20060;-70
2020/12/11 03:33:41;;;;;;;36.00;12.45;;;;;;;8.44;53.73;100093.34;5070150;28;20036;-70
2020/12/11 03:36:06;;;;;;;31.25;10.95;;;;;;;8.66;53.37;100082.69;5064896;28;20107;-70
2020/12/11 03:38:31;;;;;;;35.88;13.68;;;;;;;8.31;54.09;100081.47;5066132;28;20048;-71
2020/12/11 03:40:57;;;;;;;33.88;12.35;;;;;;;8.26;54.19;100078.97;5069355;28;20067;-70
2020/12/11 03:43:22;;;;;;;30.90;12.82;;;;;;;8.49;53.42;100082.97;5053989;28;20128;-70
2020/12/11 03:45:48;;;;;;;30.30;13.02;;;;;;;8.39;54.11;100078.78;5052243;28;20036;-71
2020/12/11 03:48:13;;;;;;;29.33;12.75;;;;;;;8.28;54.34;100076.34;5070725;28;20028;-71
2020/12/11 03:50:39;;;;;;;27.55;11.43;;;;;;;8.19;54.70;100071.34;5067320;28;20413;-71
2020/12/11 03:53:04;;;;;;;33.15;11.93;;;;;;;8.49;53.92;100064.94;5070572;28;20040;-71
2020/12/11 03:55:31;;;;;;;32.47;12.73;;;;;;;8.55;53.80;100070.00;5070959;28;20046;-71
2020/12/11 03:57:56;;;;;;;33.30;13.02;;;;;;;8.54;53.86;100063.13;5067364;28;20212;-71
2020/12/11 04:00:22;;;;;;;36.50;12.18;;;;;;;8.51;54.15;100064.03;5069674;28;20761;-70
2020/12/11 04:02:47;;;;;;;33.78;13.15;;;;;;;8.41;53.90;100057.31;5064579;28;20050;-70
2020/12/11 04:05:13;;;;;;;40.33;12.93;;;;;;;8.57;53.68;100067.38;5068005;28;20381;-70
2020/12/11 04:07:38;;;;;;;35.17;12.45;;;;;;;8.56;53.91;100056.25;5070425;28;20028;-70
2020/12/11 04:10:04;;;;;;;31.27;14.52;;;;;;;8.49;54.02;100047.75;5065339;28;20622;-71
2020/12/11 04:12:29;;;;;;;31.88;12.85;;;;;;;8.15;54.63;100059.38;5069171;28;20025;-71
2020/12/11 04:14:55;;;;;;;38.25;15.45;;;;;;;8.39;54.09;100051.31;5070910;28;20776;-70
2020/12/11 04:17:20;;;;;;;36.17;13.50;;;;;;;8.56;53.99;100045.09;5086101;28;20509;-71
2020/12/11 04:19:46;;;;;;;36.88;13.95;;;;;;;8.01;54.98;100042.41;5077424;28;20025;-70
2020/12/11 04:22:11;;;;;;;37.25;14.18;;;;;;;8.54;53.77;100042.53;5063362;28;20028;-71
2020/12/11 04:24:37;;;;;;;38.20;13.68;;;;;;;8.70;53.52;100049.13;5085963;28;20028;-70
2020/12/11 04:27:02;;;;;;;33.58;14.85;;;;;;;8.40;54.29;100040.19;5068922;28;20069;-70
2020/12/11 04:29:28;;;;;;;34.60;12.88;;;;;;;8.44;54.26;100044.41;5067553;28;20032;-70
2020/12/11 04:31:58;;;;;;;32.13;14.18;;;;;;;8.45;54.10;100046.09;5085661;28;20028;-72
2020/12/11 04:34:24;;;;;;;34.28;14.05;;;;;;;8.58;53.43;100038.19;5070030;28;20485;-70
2020/12/11 04:36:54;;;;;;;34.60;12.15;;;;;;;8.55;53.48;100031.38;5068464;28;20063;-70
2020/12/11 04:39:21;;;;;;;28.13;12.80;;;;;;;8.48;53.95;100034.91;5069223;28;20055;-70
2020/12/11 04:41:46;;;;;;;34.45;12.70;;;;;;;8.44;54.08;100031.53;5068572;28;20444;-72
2020/12/11 04:44:12;;;;;;;27.08;12.57;;;;;;;7.88;54.61;100040.88;5085407;28;20028;-71
2020/12/11 04:46:39;;;;;;;29.75;13.90;;;;;;;7.82;55.01;100033.25;5067423;28;20041;-70
2020/12/11 04:49:06;;;;;;;27.60;10.73;;;;;;;8.01;54.12;100026.97;5070550;28;20477;-69
2020/12/11 04:51:33;;;;;;;34.78;12.20;;;;;;;8.03;53.98;100025.22;5062586;28;20040;-70
2020/12/11 04:54:00;;;;;;;35.58;12.77;;;;;;;8.26;53.64;100021.47;5068479;28;20039;-71
2020/12/11 04:56:26;;;;;;;28.13;11.15;;;;;;;8.24;53.42;100015.50;5068557;28;20784;-69
2020/12/11 04:58:53;;;;;;;30.35;12.20;;;;;;;8.45;53.06;100016.94;5070433;28;20029;-70
2020/12/11 05:01:32;;;;;;;26.67;11.55;;;;;;;8.30;53.46;100015.41;5069356;28;20048;-70
2020/12/11 05:03:59;;;;;;;34.70;12.90;;;;;;;8.56;53.13;100016.75;5068733;28;20028;-71
2020/12/11 05:06:26;;;;;;;26.27;11.60;;;;;;;8.15;54.00;100018.19;5067665;28;20036;-70
2020/12/11 05:09:14;;;;;;;25.85;11.27;;;;;;;8.36;53.45;100025.63;5067069;28;20033;-71
2020/12/11 05:11:41;;;;;;;28.65;11.80;;;;;;;8.25;53.99;100018.03;5063132;28;20047;-70
2020/12/11 05:14:18;;;;;;;28.67;11.93;;;;;;;8.31;54.08;100004.25;5070034;28;20525;-70
2020/12/11 05:16:57;;;;;;;30.05;11.68;;;;;;;8.40;53.63;100004.13;5067477;28;20498;-69
2020/12/11 05:19:22;;;;;;;28.45;11.77;;;;;;;8.09;54.64;100007.13;5072442;28;20036;-70
2020/12/11 05:21:48;;;;;;;35.20;11.95;;;;;;;8.23;54.46;100016.38;5068005;28;20039;-71
2020/12/11 05:24:14;;;;;;;31.27;12.27;;;;;;;8.22;54.90;100015.53;5067652;28;20107;-70
2020/12/11 05:26:39;;;;;;;42.20;13.23;;;;;;;8.06;55.46;100014.91;5062791;28;20027;-70
2020/12/11 05:29:05;;;;;;;34.58;12.15;;;;;;;8.36;54.97;100007.59;5069066;28;21015;-70
2020/12/11 05:31:30;;;;;;;34.55;12.55;;;;;;;8.29;55.15;100006.00;5082857;28;20036;-70
2020/12/11 05:34:10;;;;;;;32.50;12.18;;;;;;;8.00;56.06;99996.97;5062539;28;20025;-69
2020/12/11 05:36:54;;;;;;;37.63;12.43;;;;;;;8.25;55.57;100009.47;5061476;28;20032;-70
2020/12/11 05:39:28;;;;;;;32.08;14.88;;;;;;;8.14;55.74;99994.19;5064921;28;20179;-70
2020/12/11 05:41:54;;;;;;;42.53;13.85;;;;;;;8.04;56.23;99996.06;5083195;28;20574;-70
2020/12/11 05:44:32;;;;;;;39.08;11.73;;;;;;;7.49;57.45;100002.78;5067200;28;20093;-70
2020/12/11 05:47:15;;;;;;;34.08;13.27;;;;;;;7.87;56.59;99992.88;5064803;28;20040;-71
2020/12/11 05:49:41;;;;;;;31.15;13.82;;;;;;;7.76;55.79;99997.31;5065634;28;20074;-70
2020/12/11 05:52:14;;;;;;;32.72;12.00;;;;;;;7.83;55.15;99991.22;5067780;28;20428;-69
2020/12/11 05:54:47;;;;;;;37.17;12.48;;;;;;;8.16;54.42;99986.47;5063455;28;20048;-71
2020/12/11 05:57:15;;;;;;;33.75;12.05;;;;;;;8.07;54.45;99983.13;5082841;28;20041;-69
2020/12/11 05:59:42;;;;;;;38.58;12.45;;;;;;;8.06;54.33;99975.44;5061428;28;20036;-70
2020/12/11 06:02:10;;;;;;;34.00;11.75;;;;;;;7.92;54.73;99970.50;5065977;28;20029;-71
2020/12/11 06:04:36;;;;;;;30.38;12.68;;;;;;;7.52;55.85;99963.31;5062303;28;20028;-69
2020/12/11 06:07:02;;;;;;;30.05;12.77;;;;;;;8.20;54.71;99962.38;5067544;28;20060;-71
2020/12/11 06:09:36;;;;;;;30.40;12.00;;;;;;;8.30;53.87;99967.34;5066082;28;20091;-70
2020/12/11 06:12:06;;;;;;;35.38;13.32;;;;;;;7.95;54.73;99965.31;5066167;28;20082;-69
2020/12/11 06:15:07;;;;;;;38.70;13.35;;;;;;;7.96;54.92;99951.56;5062212;28;20048;-71
2020/12/11 06:17:45;;;;;;;34.75;13.07;;;;;;;8.02;55.24;99942.91;5071775;28;20036;-70
2020/12/11 06:20:11;;;;;;;33.25;13.82;;;;;;;7.95;55.48;99936.16;5062239;28;20528;-70
2020/12/11 06:22:37;;;;;;;38.13;13.48;;;;;;;7.67;56.12;99939.97;5067164;28;20043;-70
2020/12/11 06:25:25;;;;;;;30.90;11.88;;;;;;;7.82;56.15;99938.91;5062466;28;20033;-70
2020/12/11 06:27:51;;;;;;;35.05;13.48;;;;;;;7.83;56.00;99919.19;5067202;28;20037;-72
2020/12/11 06:30:25;;;;;;;41.03;12.70;;;;;;;7.75;56.04;99916.72;5071202;28;20048;-72
2020/12/11 06:32:50;;;;;;;32.55;12.00;;;;;;;7.65;56.11;99915.16;5067523;28;20037;-69
2020/12/11 06:35:16;;;;;;;30.23;12.82;;;;;;;7.77;55.90;99916.69;5070090;28;20033;-71
2020/12/11 06:37:41;;;;;;;35.90;13.23;;;;;;;7.44;56.18;99921.47;5069991;28;20028;-72
2020/12/11 06:40:08;;;;;;;30.55;12.50;;;;;;;7.55;56.29;99919.59;5070921;28;20115;-70
2020/12/11 06:42:37;;;;;;;39.28;13.57;;;;;;;7.00;57.34;99910.00;5070822;28;20036;-70
2020/12/11 06:45:18;;;;;;;40.15;14.50;;;;;;;7.22;56.54;99906.31;5071716;28;20033;-70
2020/12/11 06:47:48;;;;;;;33.85;13.68;;;;;;;7.65;55.58;99895.41;5090459;28;20036;-71
2020/12/11 06:50:14;;;;;;;35.50;13.35;;;;;;;7.75;55.15;99885.88;5089142;28;20051;-69
2020/12/11 06:52:40;;;;;;;33.13;13.82;;;;;;;7.36;56.24;99888.13;5060043;28;20099;-71
2020/12/11 06:55:05;;;;;;;34.78;11.77;;;;;;;7.24;56.87;99883.16;5076573;28;20108;-69
2020/12/11 06:57:36;;;;;;;30.85;11.80;;;;;;;7.37;56.46;99874.41;5069373;28;20037;-70
2020/12/11 07:00:24;;;;;;;31.60;12.32;;;;;;;7.24;56.72;99862.59;5073672;28;20029;-72
2020/12/11 07:03:25;;;;;;;38.22;13.50;;;;;;;7.51;56.02;99875.94;5071904;28;20048;-71
2020/12/11 07:05:59;;;;;;;29.55;11.80;;;;;;;7.64;55.75;99865.44;5070749;28;20024;-71
2020/12/11 07:08:25;;;;;;;30.10;12.73;;;;;;;7.21;57.07;99868.63;5069470;28;20031;-71
2020/12/11 07:10:50;;;;;;;34.13;12.48;;;;;;;7.65;55.87;99869.69;5072529;28;20561;-71
2020/12/11 07:13:16;;;;;;;32.95;11.90;;;;;;;7.56;56.30;99871.56;5072182;28;20048;-71
2020/12/11 07:15:41;;;;;;;37.50;13.77;;;;;;;7.47;56.52;99859.69;5075088;28;20065;-70
2020/12/11 07:18:16;;;;;;;41.50;15.52;;;;;;;7.71;55.71;99868.78;5065332;28;20064;-71
2020/12/11 07:21:02;;;;;;;34.00;12.35;;;;;;;7.54;56.34;99875.88;5066460;28;20074;-71
2020/12/11 07:23:28;;;;;;;41.50;14.63;;;;;;;7.37;56.58;99873.56;5068838;28;20424;-71
2020/12/11 07:25:55;;;;;;;35.40;14.45;;;;;;;7.40;56.99;99864.06;5062759;28;20044;-70
2020/12/11 07:28:21;;;;;;;36.92;14.23;;;;;;;7.35;56.80;99863.31;5069334;28;20536;-70
2020/12/11 07:30:47;;;;;;;36.28;13.35;;;;;;;7.16;57.07;99846.44;5069741;28;20493;-71
2020/12/11 07:33:13;;;;;;;34.60;13.75;;;;;;;7.31;56.85;99838.50;5072572;28;20034;-70
2020/12/11 07:35:49;;;;;;;28.20;12.80;;;;;;;7.38;56.39;99832.41;5070652;28;20453;-71
2020/12/11 07:38:17;;;;;;;31.85;13.43;;;;;;;7.15;56.86;99834.47;5083790;28;20173;-71
2020/12/11 07:40:43;;;;;;;34.42;13.23;;;;;;;7.09;57.23;99837.09;5066759;28;20036;-69
2020/12/11 07:43:10;;;;;;;34.35;13.90;;;;;;;7.26;57.12;99841.16;5067943;28;20041;-70
2020/12/11 07:45:37;;;;;;;28.88;12.73;;;;;;;7.20;57.47;99842.94;5070905;28;20633;-70
2020/12/11 07:48:04;;;;;;;31.00;12.25;;;;;;;7.30;57.28;99839.38;5071243;28;20040;-71
2020/12/11 07:50:30;;;;;;;29.60;13.13;;;;;;;7.53;56.42;99835.63;5068142;28;20036;-70
2020/12/11 07:52:57;;;;;;;40.20;14.02;;;;;;;7.48;56.83;99846.00;5068478;28;20040;-71
2020/12/11 07:55:26;;;;;;;33.53;12.52;;;;;;;7.69;56.34;99860.22;5063840;28;20261;-71
2020/12/11 07:57:53;;;;;;;34.13;13.23;;;;;;;7.65;56.48;99872.28;5068863;28;20448;-70
2020/12/11 08:00:20;;;;;;;39.38;13.95;;;;;;;7.46;57.09;99868.28;5070579;28;20047;-70
2020/12/11 08:02:53;;;;;;;33.22;12.68;;;;;;;7.40;57.14;99853.78;5068473;28;20042;-70
2020/12/11 08:05:19;;;;;;;36.67;13.98;;;;;;;7.14;57.62;99836.16;5068860;28;20039;-71
2020/12/11 08:07:48;;;;;;;34.13;12.77;;;;;;;7.00;57.91;99843.22;5068780;28;23021;-71
2020/12/11 08:10:16;;;;;;;34.35;12.93;;;;;;;7.45;56.61;99831.44;5069267;28;20047;-70
2020/12/11 08:12:43;;;;;;;38.00;14.10;;;;;;;6.63;58.21;99851.34;5067680;28;20040;-71
2020/12/11 08:15:10;;;;;;;34.00;13.43;;;;;;;7.14;57.49;99851.56;5065308;28;20041;-70
2020/12/11 08:17:36;;;;;;;36.10;13.77;;;;;;;7.42;56.76;99851.22;5069408;28;20037;-70
2020/12/11 08:20:07;;;;;;;34.17;12.40;;;;;;;7.39;56.17;99840.94;5072825;28;20036;-72
2020/12/11 08:22:38;;;;;;;34.23;11.73;;;;;;;7.07;56.70;99849.97;5071719;28;20051;-71
2020/12/11 08:25:20;;;;;;;42.72;15.60;;;;;;;7.53;55.89;99851.91;5071992;28;20286;-68
2020/12/11 08:27:46;;;;;;;;;;;;;;;7.55;55.61;99852.72;5070547;28;20040;-70
2020/12/11 08:30:14;;;;;;;32.20;13.07;;;;;;;7.26;55.85;99838.56;5074908;28;20278;-71
2020/12/11 08:32:40;;;;;;;37.75;12.07;;;;;;;7.26;56.15;99841.16;5067529;28;20654;-70
2020/12/11 08:35:16;;;;;;;36.00;11.98;;;;;;;6.96;56.53;99837.25;5066966;28;20036;-69
2020/12/11 08:37:56;;;;;;;43.20;13.93;;;;;;;7.25;55.83;99849.72;5067168;28;20048;-71
2020/12/11 08:40:22;;;;;;;39.08;13.75;;;;;;;7.24;55.68;99842.03;5083726;28;20151;-69
2020/12/11 08:42:57;;;;;;;29.50;11.45;;;;;;;7.18;56.19;99822.41;5067822;28;20108;-71
2020/12/11 08:45:34;;;;;;;31.15;13.38;;;;;;;7.28;55.54;99834.25;5081498;28;20150;-72
2020/12/11 08:51:00;;;;;;;29.70;11.15;;;;;;;7.44;55.25;99821.19;5081667;28;20043;-69
2020/12/11 08:53:28;;;;;;;33.15;12.38;;;;;;;7.34;55.35;99819.63;5066909;28;20035;-69
2020/12/11 08:55:54;;;;;;;31.67;12.40;;;;;;;7.52;54.54;99814.19;5067522;28;20499;-70
2020/12/11 08:58:19;;;;;;;30.35;12.23;;;;;;;7.20;55.16;99815.53;5066625;28;20040;-70
2020/12/11 09:00:45;;;;;;;27.58;11.63;;;;;;;7.25;55.51;99807.75;5066914;28;20039;-70
2020/12/11 09:03:10;;;;;;;31.83;13.27;;;;;;;7.22;55.43;99802.66;5069103;28;20064;-69
2020/12/11 09:05:36;;;;;;;28.50;11.32;;;;;;;7.23;55.38;99806.91;5067653;28;20032;-70
2020/12/11 09:08:01;;;;;;;33.60;13.30;;;;;;;7.07;55.60;99801.97;5082653;28;20764;-70
2020/12/11 09:10:27;;;;;;;32.00;12.13;;;;;;;7.06;55.93;99812.31;5068235;28;20036;-70
2020/12/11 09:12:53;;;;;;;33.33;12.13;;;;;;;7.53;54.55;99808.19;5065359;28;20028;-70
2020/12/11 09:15:21;;;;;;;26.65;11.38;;;;;;;6.96;55.79;99798.72;5067703;28;20123;-71
2020/12/11 09:17:47;;;;;;;26.60;11.85;;;;;;;7.04;55.82;99799.47;5061782;28;20036;-70
2020/12/11 09:20:13;;;;;;;33.03;11.45;;;;;;;7.34;54.85;99801.63;5065761;28;20047;-71
2020/12/11 09:22:39;;;;;;;29.85;12.02;;;;;;;7.48;54.73;99795.41;5065095;28;20028;-70
2020/12/11 09:25:05;;;;;;;34.28;13.10;;;;;;;7.31;54.88;99799.94;5064192;28;20909;-70
2020/12/11 09:27:32;;;;;;;30.80;11.18;;;;;;;7.11;55.40;99789.97;5065544;28;20119;-70
2020/12/11 09:30:24;;;;;;;34.75;12.32;;;;;;;7.11;55.41;99787.38;5081711;28;20028;-70
2020/12/11 09:32:54;;;;;;;30.92;12.07;;;;;;;7.06;55.63;99791.75;5065998;28;20052;-69
2020/12/11 09:35:19;;;;;;;28.25;10.60;;;;;;;7.28;54.79;99790.56;5064725;28;20047;-71
2020/12/11 09:37:49;;;;;;;33.70;12.88;;;;;;;7.56;54.11;99790.13;5066480;28;20123;-70
2020/12/11 09:40:20;;;;;;;32.03;10.82;;;;;;;7.04;55.32;99790.91;5062412;28;20093;-71
2020/12/11 09:45:33;;;;;;;29.73;12.55;;;;;;;7.40;54.59;99786.97;5080813;28;20105;-71
2020/12/11 09:53:17;;;;;;;30.35;11.98;;;;;;;7.68;53.96;99776.25;5068545;28;20154;-70
2020/12/11 09:55:47;;;;;;;23.67;11.02;;;;;;;7.59;53.87;99779.81;5064535;28;20043;-69
2020/12/11 09:58:13;;;;;;;30.30;11.30;;;;;;;7.40;54.02;99779.25;5065096;28;20074;-70
2020/12/11 10:00:41;;;;;;;27.80;11.27;;;;;;;7.28;54.70;99777.72;5061514;28;20040;-71
2020/12/11 10:03:10;;;;;;;24.45;10.55;;;;;;;7.73;53.57;99777.00;5066525;28;20036;-70
2020/12/11 10:05:36;;;;;;;24.10;10.13;;;;;;;7.77;52.85;99770.94;5044147;28;20048;-70
2020/12/11 10:08:01;;;;;;;28.35;12.80;;;;;;;7.76;53.21;99761.50;5066436;28;20462;-70
2020/12/11 10:10:27;;;;;;;30.20;10.52;;;;;;;7.80;52.89;99762.31;5067023;28;20282;-70
2020/12/11 10:12:52;;;;;;;26.42;11.52;;;;;;;7.71;53.20;99758.19;5072333;28;20285;-71
2020/12/11 10:15:22;;;;;;;31.45;12.07;;;;;;;7.53;53.57;99761.06;5066783;28;20036;-70
2020/12/11 10:17:49;;;;;;;31.05;11.60;;;;;;;7.70;53.16;99748.75;5066709;28;20115;-71
2020/12/11 10:20:18;;;;;;;24.30;10.23;;;;;;;7.65;53.42;99745.41;5062657;28;20044;-72
2020/12/11 10:22:46;;;;;;;25.63;10.80;;;;;;;7.56;53.74;99749.00;5067100;28;20127;-69
2020/12/11 10:25:12;;;;;;;24.58;10.68;;;;;;;7.98;52.62;99743.97;5081157;28;20113;-72
2020/12/11 10:27:38;;;;;;;27.05;11.40;;;;;;;7.49;53.34;99745.66;5062708;28;20051;-72
2020/12/11 10:30:04;;;;;;;23.83;10.68;;;;;;;7.56;53.59;99736.13;5064310;28;20047;-69
2020/12/11 10:32:29;;;;;;;27.55;11.82;;;;;;;7.85;52.45;99733.06;5069999;28;20044;-70
2020/12/11 10:34:54;;;;;;;26.10;10.38;;;;;;;7.79;52.86;99727.16;5066313;28;20183;-70
2020/12/11 10:37:20;;;;;;;26.35;9.85;;;;;;;7.79;53.08;99738.34;5067617;28;20543;-70
2020/12/11 10:39:45;;;;;;;23.25;10.80;;;;;;;7.80;53.09;99728.88;5066423;28;20468;-70
2020/12/11 10:42:11;;;;;;;25.73;12.07;;;;;;;8.13;52.36;99727.41;5064509;28;20679;-69
2020/12/11 10:44:37;;;;;;;25.73;11.32;;;;;;;7.93;52.48;99719.22;5065261;28;20070;-71
2020/12/11 10:47:02;;;;;;;27.23;11.10;;;;;;;7.87;52.92;99715.03;5067867;28;20120;-70
2020/12/11 10:49:31;;;;;;;23.23;10.63;;;;;;;7.96;52.51;99708.88;5069026;28;20055;-70
2020/12/11 10:51:56;;;;;;;28.25;10.27;;;;;;;7.83;52.86;99708.22;5067976;28;20567;-70
2020/12/11 10:54:28;;;;;;;21.60;9.60;;;;;;;7.77;52.86;99704.06;5071354;28;20040;-72
2020/12/11 10:56:57;;;;;;;26.00;11.38;;;;;;;7.91;53.08;99696.09;5055468;28;20515;-72
2020/12/11 10:59:25;;;;;;;28.17;11.27;;;;;;;7.69;53.30;99687.91;5066161;28;20281;-71
2020/12/11 11:01:51;;;;;;;22.10;10.55;;;;;;;7.62;53.46;99692.31;5070398;28;20032;-69
2020/12/11 11:04:17;;;;;;;24.98;11.40;;;;;;;7.69;53.48;99691.31;5066177;28;20029;-72
2020/12/11 11:06:51;;;;;;;23.25;10.65;;;;;;;7.73;53.36;99686.16;5073779;28;20515;-74
2020/12/11 11:09:40;;;;;;;22.08;10.38;;;;;;;7.99;53.06;99673.66;5071782;28;20421;-72
2020/12/11 11:27:46;;;;;;;20.35;9.15;;;;;;;8.22;52.46;99664.59;5070341;28;20047;-72
2020/12/11 11:30:11;;;;;;;26.83;10.20;;;;;;;8.00;52.71;99664.19;5071182;28;20436;-72
2020/12/11 11:32:37;;;;;;;19.15;8.73;;;;;;;8.00;52.73;99667.59;5063938;28;20046;-72
2020/12/11 11:35:04;;;;;;;22.20;10.77;;;;;;;8.23;52.53;99666.28;5085551;28;20028;-72
2020/12/11 11:37:30;;;;;;;21.92;9.45;;;;;;;8.66;51.47;99660.25;5072882;28;20032;-69
2020/12/11 11:39:56;;;;;;;25.35;10.18;;;;;;;8.72;51.47;99666.09;5074522;28;20055;-71
2020/12/11 11:42:22;;;;;;;24.60;10.40;;;;;;;8.90;51.06;99666.56;5070605;28;20062;-69
2020/12/11 11:47:13;;;;;;;24.98;10.75;;;;;;;8.92;50.35;99652.75;5071017;28;20150;-72
2020/12/11 11:49:59;;;;;;;21.80;9.52;;;;;;;8.43;51.32;99641.00;5070348;28;20123;-71
2020/12/11 11:54:53;;;;;;;21.60;10.48;;;;;;;8.97;50.76;99628.63;5071400;28;20040;-73
2020/12/11 11:57:18;;;;;;;21.80;10.32;;;;;;;8.48;51.29;99631.47;5051473;28;20039;-69
2020/12/11 11:59:45;;;;;;;20.73;9.57;;;;;;;8.84;50.89;99634.06;5071364;28;20131;-75